ADDS METAR Data INFO
IDs: Format: Raw Decoded Include TAF

Data at: 2054 UTC 19 Jul 2018

KIKK 192035Z AUTO 19009KT 10SM SCT110 29/16 A2993 RMK AO2 LTG DSNT W T02860159
KIKK 192015Z AUTO 17008KT 10SM BKN110 29/15 A2993 RMK AO2 T02880153
KIKK 191955Z AUTO 18011G16KT 10SM CLR 29/16 A2993 RMK AO2 T02920155
KIKK 191935Z AUTO 17010KT 10SM CLR 29/16 A2994 RMK AO2 T02880164
KIKK 191915Z AUTO 20010G15KT 10SM CLR 29/16 A2994 RMK AO2 LTG DSNT W T02870155
KIKK 191855Z AUTO 16011G16KT 10SM CLR 29/15 A2994 RMK AO2 T02870153
KIKK 191835Z AUTO 15010KT 10SM CLR 29/16 A2994 RMK AO2 LTG DSNT NW T02870157
KIKK 191815Z AUTO 18011G14KT 10SM CLR 28/16 A2995 RMK AO2 T02840155
KIKK 191755Z AUTO 16011G14KT 10SM CLR 28/14 A2996 RMK AO2 T02820142 10282 20160
KIKK 191735Z AUTO 17007G16KT 10SM CLR 28/15 A2997 RMK AO2 T02810145
KIKK 191715Z AUTO 19010G15KT 10SM CLR 28/16 A2997 RMK AO2 T02790157
KIKK 191655Z AUTO 16009G14KT 10SM CLR 28/16 A2997 RMK AO2 LTG DSNT W T02760159
KIKK 191635Z AUTO 16009KT 10SM CLR 28/16 A2997 RMK AO2 T02750157
KIKK 191615Z AUTO 17008KT 10SM CLR 27/16 A2998 RMK AO2 T02700161
KIKK 191555Z AUTO 16008KT 10SM CLR 27/17 A2998 RMK AO2 T02650169
KIKK 191535Z AUTO 16008KT 10SM CLR 26/17 A2999 RMK AO2 T02600172
KIKK 191515Z AUTO 14006KT 10SM CLR 25/17 A2999 RMK AO2 T02490171
KIKK 191455Z AUTO 16007KT 10SM CLR 24/16 A3000 RMK AO2 T02420162
KIKK 191435Z AUTO 15007KT 10SM CLR 24/17 A3000 RMK AO2 T02370165
KIKK 191415Z AUTO 13008KT 10SM CLR 23/16 A3000 RMK AO2 T02300163
KIKK 191355Z AUTO 13008KT 10SM CLR 22/16 A3001 RMK AO2 LTG DSNT W T02200164
KIKK 191335Z AUTO 14008KT 10SM CLR 21/16 A3001 RMK AO2 T02120159
KIKK 191315Z AUTO 13006KT 10SM CLR 20/16 A3002 RMK AO2 T02020155
KIKK 191255Z AUTO 12005KT 10SM CLR 19/15 A3002 RMK AO2 T01940150
KIKK 191235Z AUTO 09003KT 10SM CLR 18/14 A3002 RMK AO2 T01830144
KIKK 191215Z AUTO 08003KT 10SM CLR 17/15 A3002 RMK AO2 T01720147
KIKK 191155Z AUTO 08003KT 10SM CLR 16/14 A3002 RMK AO2 T01590143 10166 20138
KIKK 191135Z AUTO 07004KT 10SM CLR 15/14 A3002 RMK AO2 T01500140
KIKK 191115Z AUTO 06003KT 10SM CLR 15/14 A3002 RMK AO2 T01490140
KIKK 191055Z AUTO 07004KT 10SM CLR 15/14 A3002 RMK AO2 T01450135
KIKK 191035Z AUTO 08004KT 10SM CLR 14/14 A3002 RMK AO2 T01430136
KIKK 191015Z AUTO 08004KT 10SM CLR 14/13 A3002 RMK AO2 T01410133
KIKK 190955Z AUTO 08003KT 10SM CLR 14/14 A3002 RMK AO2 T01440135
KIKK 190935Z AUTO 09003KT 10SM CLR 14/14 A3002 RMK AO2 T01420135
KIKK 190915Z AUTO 08003KT 10SM CLR 14/13 A3003 RMK AO2 T01400132
KIKK 190855Z AUTO 00000KT 10SM CLR 15/14 A3003 RMK AO2 T01470135
KIKK 190835Z AUTO 00000KT 10SM CLR 15/14 A3004 RMK AO2 T01470135
KIKK 190815Z AUTO 00000KT 10SM CLR 15/14 A3004 RMK AO2 T01460135
KIKK 190755Z AUTO 00000KT 10SM CLR 15/13 A3004 RMK AO2 T01520131
KIKK 190735Z AUTO 00000KT 10SM CLR 15/13 A3004 RMK AO2 T01520129
KIKK 190715Z AUTO 00000KT 10SM CLR 15/13 A3004 RMK AO2 T01540126
KIKK 190655Z AUTO 00000KT 10SM CLR 16/13 A3005 RMK AO2 T01570129
KIKK 190635Z AUTO 00000KT 10SM CLR 16/13 A3005 RMK AO2 T01590129
KIKK 190615Z AUTO 00000KT 10SM CLR 16/13 A3005 RMK AO2 T01610127
KIKK 190555Z AUTO 00000KT 10SM CLR 17/13 A3006 RMK AO2 T01660127 10228 20162 402640136
KIKK 190535Z AUTO 00000KT 10SM CLR 17/13 A3006 RMK AO2 T01660125
KIKK 190515Z AUTO 00000KT 10SM CLR 17/13 A3006 RMK AO2 T01710125
KIKK 190455Z AUTO 00000KT 10SM CLR 17/12 A3006 RMK AO2 T01650121
KIKK 190435Z AUTO 00000KT 10SM CLR 17/12 A3006 RMK AO2 T01690120
KIKK 190415Z AUTO 00000KT 10SM CLR 17/12 A3006 RMK AO2 T01700118
KIKK 190355Z AUTO 00000KT 10SM CLR 16/12 A3006 RMK AO2 T01640119
KIKK 190335Z AUTO 00000KT 10SM CLR 17/12 A3006 RMK AO2 T01650117
KIKK 190315Z AUTO 04003KT 10SM CLR 18/12 A3006 RMK AO2 T01750120
KIKK 190255Z AUTO 06003KT 10SM CLR 18/12 A3006 RMK AO2 T01780119
KIKK 190235Z AUTO 03004KT 10SM CLR 17/12 A3006 RMK AO2 T01710120
KIKK 190215Z AUTO 05004KT 10SM CLR 18/12 A3006 RMK AO2 T01780117
KIKK 190155Z AUTO 04005KT 10SM CLR 18/12 A3005 RMK AO2 T01840116
KIKK 190135Z AUTO 03004KT 10SM CLR 19/12 A3005 RMK AO2 T01890117
KIKK 190115Z AUTO 00000KT 10SM CLR 20/12 A3005 RMK AO2 T01980118
KIKK 190055Z AUTO 04006KT 10SM CLR 21/12 A3005 RMK AO2 T02090116
KIKK 190035Z AUTO 04006KT 10SM CLR 22/12 A3006 RMK AO2 T02160115
KIKK 190015Z AUTO 03006KT 10SM CLR 23/11 A3006 RMK AO2 T02250112
KIKK 182355Z AUTO 04006KT 10SM CLR 23/11 A3006 RMK AO2 T02280106 10264 20228
KIKK 182335Z AUTO 03009KT 10SM CLR 24/10 A3005 RMK AO2 T02390098
KIKK 182315Z AUTO 05008KT 10SM SCT002 25/10 A3005 RMK AO2 T02510102
KIKK 182255Z AUTO 06009KT 10SM SCT002 25/10 A3006 RMK AO2 T02530098
KIKK 182235Z AUTO 06010KT 10SM SCT002 26/09 A3007 RMK AO2 T02550094
KIKK 182215Z AUTO 05008KT 10SM CLR 26/10 A3007 RMK AO2 T02550097
KIKK 182155Z AUTO 05007KT 10SM CLR 26/10 A3007 RMK AO2 T02580098
KIKK 182135Z AUTO 04011KT 10SM CLR 26/10 A3007 RMK AO2 T02600096
KIKK 182115Z AUTO 08008KT 10SM CLR 26/10 A3007 RMK AO2 T02600098
KIKK 182055Z AUTO 07008KT 10SM CLR 26/09 A3008 RMK AO2 T02630093
KIKK 182035Z AUTO 07009KT 10SM CLR 26/10 A3009 RMK AO2 T02640097
KIKK 182015Z AUTO 06007KT 10SM CLR 26/10 A3009 RMK AO2 T02620095
KIKK 181955Z AUTO 05007KT 10SM CLR 26/09 A3010 RMK AO2 T02580092
KIKK 181935Z AUTO 06007KT 10SM CLR 26/10 A3011 RMK AO2 T02630104
KIKK 181915Z AUTO 06010KT 10SM CLR 26/10 A3011 RMK AO2 T02620099
KIKK 181850Z AUTO 06010G16KT 10SM CLR 26/11 A3012 RMK AO2 T02630107
KIKK 181835Z AUTO 05010KT 10SM CLR 26/11 A3012 RMK AO2 T02570105
KIKK 181815Z AUTO 06010KT 10SM CLR 26/11 A3012 RMK AO2 T02570106
KIKK 181755Z AUTO 05011G14KT 10SM CLR 26/11 A3012 RMK AO2 T02570112 10257 20163
KIKK 181730Z AUTO 06010G14KT 040V100 10SM CLR 26/12 A3013 RMK AO2 T02550116
KIKK 181715Z AUTO 04010KT 10SM CLR 25/11 A3013 RMK AO2 T02540109
KIKK 181655Z AUTO 07009KT 10SM CLR 25/12 A3013 RMK AO2 T02500120
KIKK 181635Z AUTO 05011G16KT 10SM CLR 25/12 A3013 RMK AO2 T02460118
KIKK 181615Z AUTO 04011G15KT 10SM CLR 25/12 A3014 RMK AO2 T02470122
KIKK 181555Z AUTO 06009G14KT 10SM CLR 24/12 A3014 RMK AO2 T02420123
KIKK 181535Z AUTO 08008KT 10SM CLR 24/12 A3014 RMK AO2 T02380119
KIKK 181515Z AUTO 06010G14KT 10SM CLR 23/12 A3013 RMK AO2 T02300115
KIKK 181455Z AUTO 05010KT 10SM CLR 23/12 A3013 RMK AO2 T02270124
KIKK 181435Z AUTO 05011KT 10SM CLR 22/12 A3013 RMK AO2 T02230122
KIKK 181415Z AUTO 06009KT 10SM CLR 22/14 A3014 RMK AO2 T02210140
KIKK 181355Z AUTO 06007KT 10SM CLR 22/15 A3013 RMK AO2 T02170152
KIKK 181335Z AUTO 05009KT 10SM CLR 21/16 A3013 RMK AO2 T02120157
KIKK 181315Z AUTO 07004KT 10SM CLR 20/16 A3014 RMK AO2 T02010157
KIKK 181255Z AUTO 06008KT 10SM CLR 20/15 A3014 RMK AO2 T01950151
KIKK 181235Z AUTO 06005KT 10SM CLR 18/15 A3014 RMK AO2 T01820146
KIKK 181215Z AUTO 05005KT 10SM CLR 17/14 A3013 RMK AO2 T01710144
KIKK 181155Z AUTO 05005KT 10SM CLR 16/15 A3014 RMK AO2 T01620145 10169 20136
KIKK 181135Z AUTO 00000KT 10SM SCT002 16/15 A3013 RMK AO2 T01560151
KIKK 181115Z AUTO 00000KT 10SM SCT002 14/14 A3013 RMK AO2 T01430139
KIKK 181055Z AUTO 00000KT 10SM CLR 15/14 A3013 RMK AO2 T01450141
KIKK 181035Z AUTO 00000KT 10SM CLR 14/14 A3013 RMK AO2 T01440140
KIKK 181015Z AUTO 00000KT 10SM CLR 14/14 A3013 RMK AO2 T01420139
KIKK 180950Z AUTO 00000KT 10SM CLR 14/14 A3013 RMK AO2 T01410137
KIKK 180935Z AUTO 30003KT 10SM CLR 14/14 A3013 RMK AO2 T01400135
KIKK 180915Z AUTO 25003KT 10SM CLR 15/14 A3013 RMK AO2 T01490142
KIKK 180855Z AUTO 00000KT 10SM CLR 14/14 A3013 RMK AO2 T01440139